Time;durP1;ratioP1;P1;durP2;ratioP2;P2;SDS_P1;SDS_P2;PMS_P1;PMS_P2;Temp;Humidity;BMP_temperature;BMP_pressure;BME280_temperature;BME280_humidity;BME280_pressure;Samples;Min_cycle;Max_cycle;Signal;HPM_P1;HPM_P2
2023/02/22 00:01:27;;;;;;;20.90;7.70;;;7.80;99.90;;;;;;5063269;28;20753;-52
2023/02/22 00:03:55;;;;;;;23.67;7.63;;;7.90;99.90;;;;;;5040926;28;20991;-49
2023/02/22 00:06:24;;;;;;;19.07;6.87;;;7.90;99.90;;;;;;5036737;28;20214;-58
2023/02/22 00:08:52;;;;;;;18.17;7.70;;;7.90;99.90;;;;;;5047334;28;20252;-51
2023/02/22 00:11:19;;;;;;;22.97;7.90;;;7.90;99.90;;;;;;5050064;28;20198;-48
2023/02/22 00:13:50;;;;;;;18.20;7.07;;;7.90;99.90;;;;;;5044642;28;20210;-52
2023/02/22 00:16:18;;;;;;;20.27;7.80;;;7.90;99.90;;;;;;5049180;28;20636;-50
2023/02/22 00:18:45;;;;;;;18.27;7.90;;;7.90;99.90;;;;;;5058845;28;20195;-50
2023/02/22 00:21:15;;;;;;;21.03;8.57;;;7.90;99.90;;;;;;5063104;28;20209;-48
2023/02/22 00:24:21;;;;;;;22.43;7.70;;;7.90;99.90;;;;;;5050408;28;20210;-48
2023/02/22 00:26:48;;;;;;;21.07;8.17;;;7.90;99.90;;;;;;5038800;28;20183;-48
2023/02/22 00:29:17;;;;;;;19.90;8.27;;;7.90;99.90;;;;;;5043435;28;20729;-51
2023/02/22 00:31:44;;;;;;;20.13;8.17;;;7.80;99.90;;;;;;5037811;28;20191;-48
2023/02/22 00:34:13;;;;;;;21.23;8.13;;;7.80;99.90;;;;;;5041889;28;20203;-52
2023/02/22 00:36:46;;;;;;;25.80;9.43;;;7.80;99.90;;;;;;5043397;28;20207;-55
2023/02/22 00:39:12;;;;;;;27.20;9.50;;;7.80;99.90;;;;;;5034791;28;20277;-48
2023/02/22 00:41:39;;;;;;;22.70;7.90;;;7.80;99.90;;;;;;5049043;28;20199;-53
2023/02/22 00:44:06;;;;;;;22.47;9.10;;;7.80;99.90;;;;;;5047254;28;20213;-51
2023/02/22 00:46:33;;;;;;;26.60;8.57;;;7.80;99.90;;;;;;5041890;28;20199;-56
2023/02/22 00:49:00;;;;;;;24.13;8.17;;;7.80;99.90;;;;;;5063806;28;20309;-53
2023/02/22 00:51:27;;;;;;;20.00;7.50;;;7.80;99.90;;;;;;5049700;28;20210;-52
2023/02/22 00:53:55;;;;;;;21.70;9.40;;;7.80;99.90;;;;;;5038547;28;20297;-49
2023/02/22 00:56:40;;;;;;;19.57;8.13;;;7.80;99.90;;;;;;5050364;28;20206;-55
2023/02/22 00:59:07;;;;;;;21.30;8.13;;;7.80;99.90;;;;;;5047223;28;20215;-50
2023/02/22 01:01:35;;;;;;;21.53;8.27;;;7.80;99.90;;;;;;5046063;28;20633;-55
2023/02/22 01:04:02;;;;;;;19.47;8.03;;;7.70;99.90;;;;;;5044888;28;20195;-48
2023/02/22 01:06:29;;;;;;;23.40;8.03;;;7.80;99.90;;;;;;5049049;28;20206;-55
2023/02/22 01:09:00;;;;;;;20.03;8.23;;;7.80;99.90;;;;;;5035215;28;20221;-51
2023/02/22 01:11:28;;;;;;;29.27;8.93;;;7.80;99.90;;;;;;5055447;28;20252;-52
2023/02/22 01:13:56;;;;;;;23.83;8.37;;;7.80;99.90;;;;;;5045412;28;20870;-51
2023/02/22 01:16:23;;;;;;;22.47;7.83;;;7.80;99.90;;;;;;5049355;28;20708;-54
2023/02/22 01:18:50;;;;;;;25.60;7.90;;;7.80;99.90;;;;;;5039233;28;20203;-49
2023/02/22 01:21:17;;;;;;;19.33;7.83;;;7.80;99.90;;;;;;5050990;28;20196;-56
2023/02/22 01:23:46;;;;;;;24.63;8.43;;;7.80;99.90;;;;;;5049733;28;20199;-48
2023/02/22 01:26:14;;;;;;;21.43;8.07;;;7.80;99.90;;;;;;5044390;28;20210;-55
2023/02/22 01:28:41;;;;;;;27.83;9.03;;;7.80;99.90;;;;;;5046183;28;20196;-49
2023/02/22 01:31:08;;;;;;;25.93;8.30;;;7.80;99.90;;;;;;5051543;28;20199;-48
2023/02/22 01:33:35;;;;;;;26.33;9.33;;;7.80;99.90;;;;;;5038681;28;20199;-49
2023/02/22 01:36:02;;;;;;;22.40;8.70;;;7.80;99.90;;;;;;5051748;28;20218;-51
2023/02/22 01:38:29;;;;;;;29.63;9.37;;;7.80;99.90;;;;;;5042465;28;20199;-53
2023/02/22 01:40:56;;;;;;;28.53;9.37;;;7.80;99.90;;;;;;5040693;28;20223;-48
2023/02/22 01:43:28;;;;;;;30.53;9.43;;;7.80;99.90;;;;;;5048602;28;20203;-55
2023/02/22 01:45:59;;;;;;;44.20;10.53;;;7.80;99.90;;;;;;5050136;28;20199;-50
2023/02/22 01:48:34;;;;;;;33.03;10.43;;;7.80;99.90;;;;;;5036587;28;20693;-56
2023/02/22 01:51:09;;;;;;;38.10;9.43;;;7.80;99.90;;;;;;5046550;28;20566;-52
2023/02/22 01:53:43;;;;;;;28.47;9.40;;;7.80;99.90;;;;;;5052582;28;20186;-49
2023/02/22 01:56:10;;;;;;;37.20;9.73;;;7.80;99.90;;;;;;5047815;28;20793;-55
2023/02/22 01:58:42;;;;;;;34.40;10.90;;;7.80;99.90;;;;;;5039898;28;20186;-53
2023/02/22 02:01:09;;;;;;;38.33;10.63;;;7.80;99.90;;;;;;5048683;28;20221;-49
2023/02/22 02:03:39;;;;;;;33.27;9.83;;;7.80;99.90;;;;;;5042798;28;20798;-53
2023/02/22 02:06:12;;;;;;;27.17;10.67;;;7.80;99.90;;;;;;5047531;28;20211;-48
2023/02/22 02:08:48;;;;;;;47.27;11.73;;;7.80;99.90;;;;;;5043267;28;20290;-49
2023/02/22 02:11:17;;;;;;;41.50;11.87;;;7.80;99.90;;;;;;5040348;28;20248;-57
2023/02/22 02:13:45;;;;;;;37.87;11.20;;;7.80;99.90;;;;;;5044874;28;20203;-49
2023/02/22 02:16:12;;;;;;;36.77;10.93;;;7.80;99.90;;;;;;5063346;28;20287;-54
2023/02/22 02:18:39;;;;;;;48.20;11.07;;;7.80;99.90;;;;;;5045360;28;20202;-50
2023/02/22 02:21:42;;;;;;;32.87;10.67;;;7.80;99.90;;;;;;5046937;28;20195;-53
2023/02/22 02:24:33;;;;;;;32.50;11.20;;;7.80;99.90;;;;;;5061475;28;20205;-50
2023/02/22 02:27:14;;;;;;;53.83;10.67;;;7.80;99.90;;;;;;5037305;28;20205;-49
2023/02/22 02:30:22;;;;;;;35.00;9.53;;;7.80;99.90;;;;;;5052749;28;20234;-49
2023/02/22 02:33:00;;;;;;;47.23;9.90;;;7.80;99.90;;;;;;5045591;28;20199;-52
2023/02/22 02:35:57;;;;;;;46.50;9.83;;;7.70;99.90;;;;;;5043592;28;20230;-57
2023/02/22 02:38:34;;;;;;;57.63;11.67;;;7.70;99.90;;;;;;5042514;28;20210;-57
2023/02/22 02:41:09;;;;;;;55.20;10.50;;;7.80;99.90;;;;;;5045726;28;20731;-54
2023/02/22 02:43:41;;;;;;;45.53;11.13;;;7.70;99.90;;;;;;5033324;28;20202;-51
2023/02/22 02:46:14;;;;;;;48.53;10.43;;;7.70;99.90;;;;;;5046848;28;20203;-55
2023/02/22 02:48:49;;;;;;;40.73;10.93;;;7.80;99.90;;;;;;5041486;28;20210;-54
2023/02/22 02:51:18;;;;;;;45.63;11.17;;;7.80;99.90;;;;;;5047918;28;20241;-55
2023/02/22 02:53:50;;;;;;;59.50;11.80;;;7.80;99.90;;;;;;5043575;28;20203;-56
2023/02/22 02:56:17;;;;;;;54.17;10.80;;;7.80;99.90;;;;;;5041520;28;20259;-57
2023/02/22 02:58:49;;;;;;;45.60;11.80;;;7.80;99.90;;;;;;5031514;28;20202;-56
2023/02/22 03:01:31;;;;;;;47.60;11.63;;;7.80;99.90;;;;;;5052110;28;20217;-55
2023/02/22 03:04:22;;;;;;;52.97;11.93;;;7.80;99.90;;;;;;5046981;28;20563;-55
2023/02/22 03:07:15;;;;;;;42.30;10.70;;;7.80;99.90;;;;;;5042349;28;20298;-54
2023/02/22 03:09:57;;;;;;;52.50;11.43;;;7.80;99.90;;;;;;5041678;28;20303;-55
2023/02/22 03:12:36;;;;;;;43.53;10.83;;;7.80;99.90;;;;;;5042051;28;20215;-53
2023/02/22 03:15:12;;;;;;;45.87;11.37;;;7.80;99.90;;;;;;5039244;28;20289;-54
2023/02/22 03:17:48;;;;;;;39.10;10.67;;;7.80;99.90;;;;;;5042461;28;20195;-50
2023/02/22 03:20:30;;;;;;;57.20;12.43;;;7.80;99.90;;;;;;5041835;28;20211;-56
2023/02/22 03:23:03;;;;;;;37.80;11.73;;;7.80;99.90;;;;;;5042919;28;20209;-56
2023/02/22 03:25:35;;;;;;;49.30;12.70;;;7.70;99.90;;;;;;5038693;28;20195;-53
2023/02/22 03:28:10;;;;;;;48.20;13.43;;;7.70;99.90;;;;;;5043147;28;20680;-50
2023/02/22 03:30:41;;;;;;;42.03;12.57;;;7.70;99.90;;;;;;5031884;28;20349;-50
2023/02/22 03:33:11;;;;;;;47.17;13.27;;;7.80;99.90;;;;;;5048875;28;20747;-53
2023/02/22 03:35:44;;;;;;;46.03;13.47;;;7.80;99.90;;;;;;5041083;28;20219;-51
2023/02/22 03:38:15;;;;;;;42.03;12.27;;;7.80;99.90;;;;;;5052147;28;20687;-52
2023/02/22 03:40:48;;;;;;;38.47;12.73;;;7.70;99.90;;;;;;5040964;28;20245;-49
2023/02/22 03:43:21;;;;;;;37.57;13.13;;;7.70;99.90;;;;;;5036375;28;20321;-53
2023/02/22 03:45:50;;;;;;;44.77;13.97;;;7.80;99.90;;;;;;5046667;28;20966;-55
2023/02/22 03:48:23;;;;;;;34.83;12.10;;;7.70;99.90;;;;;;5045093;28;20264;-54
2023/02/22 03:50:53;;;;;;;33.90;12.37;;;7.80;99.90;;;;;;5042091;28;20227;-52
2023/02/22 03:53:22;;;;;;;34.07;12.63;;;7.80;99.90;;;;;;5041062;28;20203;-51
2023/02/22 03:55:54;;;;;;;44.47;12.60;;;7.70;99.90;;;;;;5043494;28;20211;-52
2023/02/22 03:58:22;;;;;;;40.63;12.20;;;7.70;99.90;;;;;;5033574;28;20195;-49
2023/02/22 04:00:52;;;;;;;38.73;12.90;;;7.80;99.90;;;;;;5046640;28;20219;-51
2023/02/22 04:03:20;;;;;;;34.83;12.87;;;7.80;99.90;;;;;;5052331;28;20289;-56
2023/02/22 04:05:47;;;;;;;35.97;12.13;;;7.80;99.90;;;;;;5056232;28;20202;-50
2023/02/22 04:08:16;;;;;;;34.53;12.27;;;7.80;99.90;;;;;;5041655;28;20673;-55
2023/02/22 04:10:43;;;;;;;31.93;11.87;;;7.80;99.90;;;;;;5041105;28;20277;-52
2023/02/22 04:13:10;;;;;;;32.90;12.57;;;7.80;99.90;;;;;;5041101;28;20203;-55
2023/02/22 04:15:44;;;;;;;26.30;10.93;;;7.80;99.90;;;;;;5034469;28;20967;-52
2023/02/22 04:18:11;;;;;;;36.43;11.93;;;7.80;99.90;;;;;;5053908;28;20226;-52
2023/02/22 04:20:38;;;;;;;30.63;11.37;;;7.80;99.90;;;;;;5037304;28;20405;-47
2023/02/22 04:23:11;;;;;;;29.73;11.63;;;7.80;99.90;;;;;;5040151;28;20276;-56
2023/02/22 04:25:41;;;;;;;28.03;10.77;;;7.80;99.90;;;;;;5052096;28;20200;-50
2023/02/22 04:28:12;;;;;;;31.20;11.00;;;7.80;99.90;;;;;;5047320;28;20234;-55
2023/02/22 04:30:57;;;;;;;25.27;10.03;;;7.80;99.90;;;;;;5034798;28;20597;-52
2023/02/22 04:33:24;;;;;;;31.37;10.23;;;7.80;99.90;;;;;;5037448;28;20937;-53
2023/02/22 04:35:51;;;;;;;33.10;10.43;;;7.80;99.90;;;;;;5053988;28;20217;-54
2023/02/22 04:38:18;;;;;;;22.30;9.67;;;7.80;99.90;;;;;;5047427;28;20199;-56
2023/02/22 04:40:46;;;;;;;22.73;8.53;;;7.80;99.90;;;;;;5046010;28;20567;-54
2023/02/22 04:43:13;;;;;;;25.47;8.63;;;7.80;99.90;;;;;;5038574;28;20999;-53
2023/02/22 04:45:43;;;;;;;19.37;9.20;;;7.80;99.90;;;;;;5041905;28;20293;-54
2023/02/22 04:48:10;;;;;;;19.80;8.87;;;7.80;99.90;;;;;;5030628;28;20203;-50
2023/02/22 04:50:38;;;;;;;20.90;8.33;;;7.80;99.90;;;;;;5049986;28;20233;-49
2023/02/22 04:53:04;;;;;;;24.17;9.17;;;7.80;99.90;;;;;;5041371;28;20200;-55
2023/02/22 04:55:32;;;;;;;25.27;9.03;;;7.80;99.90;;;;;;5038239;28;20207;-51
2023/02/22 04:58:00;;;;;;;20.10;8.37;;;7.80;99.90;;;;;;5040040;28;20570;-54
2023/02/22 05:00:27;;;;;;;18.93;9.10;;;7.80;99.90;;;;;;5049669;28;20230;-55
2023/02/22 05:02:59;;;;;;;17.67;8.13;;;7.90;99.90;;;;;;5037584;28;20223;-55
2023/02/22 05:05:26;;;;;;;19.53;8.80;;;7.80;99.90;;;;;;5047017;28;20199;-53
2023/02/22 05:07:53;;;;;;;16.23;7.53;;;7.80;99.90;;;;;;5041353;28;20196;-54
2023/02/22 05:10:20;;;;;;;20.30;8.07;;;7.80;99.90;;;;;;5037574;28;20836;-51
2023/02/22 05:12:47;;;;;;;23.90;8.87;;;7.80;99.90;;;;;;5045215;28;20199;-53
2023/02/22 05:15:19;;;;;;;20.17;8.60;;;7.80;99.90;;;;;;5040076;28;20195;-49
2023/02/22 05:17:46;;;;;;;17.43;8.57;;;7.80;99.90;;;;;;5039275;28;20227;-49
2023/02/22 05:20:21;;;;;;;22.10;8.90;;;7.80;99.90;;;;;;5051205;28;20207;-52
2023/02/22 05:22:48;;;;;;;19.23;8.30;;;7.90;99.90;;;;;;5062094;28;20255;-54
2023/02/22 05:25:15;;;;;;;26.13;9.90;;;7.90;99.90;;;;;;5042301;28;20423;-49
2023/02/22 05:27:42;;;;;;;17.13;8.13;;;7.90;99.90;;;;;;5040368;28;20199;-50
2023/02/22 05:30:34;;;;;;;19.83;8.33;;;7.80;99.90;;;;;;5052594;28;20368;-49
2023/02/22 05:33:02;;;;;;;22.10;9.13;;;7.90;99.90;;;;;;5037741;28;20260;-55
2023/02/22 05:35:29;;;;;;;19.63;8.97;;;7.90;99.90;;;;;;5058060;28;20198;-50
2023/02/22 05:37:57;;;;;;;17.00;9.03;;;7.80;99.90;;;;;;5044801;28;20226;-55
2023/02/22 05:40:26;;;;;;;17.80;8.80;;;7.80;99.90;;;;;;5049776;28;20222;-53
2023/02/22 05:42:53;;;;;;;18.83;9.40;;;7.90;99.90;;;;;;5055869;28;20657;-54
2023/02/22 05:45:22;;;;;;;18.30;8.77;;;7.80;99.90;;;;;;5044556;28;20270;-49
2023/02/22 05:47:53;;;;;;;18.90;8.60;;;7.90;99.90;;;;;;5044444;28;20240;-55
2023/02/22 05:50:39;;;;;;;13.90;9.17;;;7.90;99.90;;;;;;5049870;28;20523;-54
2023/02/22 05:53:06;;;;;;;19.80;9.47;;;7.80;99.90;;;;;;5039362;28;20195;-55
2023/02/22 05:55:33;;;;;;;22.27;9.70;;;7.90;99.90;;;;;;5047644;28;20206;-51
2023/02/22 05:58:00;;;;;;;22.67;9.43;;;7.90;99.90;;;;;;5043678;28;20219;-52
2023/02/22 06:00:30;;;;;;;21.47;9.73;;;7.90;99.90;;;;;;5048106;28;20245;-55
2023/02/22 06:03:00;;;;;;;20.23;9.60;;;7.90;99.90;;;;;;5046877;28;20191;-57
2023/02/22 06:05:28;;;;;;;23.87;10.03;;;7.80;99.90;;;;;;5051079;28;20234;-55
2023/02/22 06:07:55;;;;;;;30.40;10.90;;;7.90;99.90;;;;;;5047349;28;20275;-53
2023/02/22 06:10:24;;;;;;;22.43;9.67;;;7.80;99.90;;;;;;5043273;28;20250;-56
2023/02/22 06:12:52;;;;;;;30.07;11.17;;;7.80;99.90;;;;;;5046122;28;20237;-53
2023/02/22 06:15:20;;;;;;;28.53;10.60;;;7.80;99.90;;;;;;5044451;28;20207;-57
2023/02/22 06:17:47;;;;;;;27.50;10.43;;;7.80;99.90;;;;;;5048220;28;20224;-54
2023/02/22 06:20:18;;;;;;;29.27;11.10;;;7.90;99.90;;;;;;5040878;28;20591;-56
2023/02/22 06:22:47;;;;;;;28.77;10.50;;;7.90;99.90;;;;;;5052141;28;20210;-55
2023/02/22 06:25:17;;;;;;;27.07;10.67;;;7.90;99.90;;;;;;5037125;28;20274;-57
2023/02/22 06:27:45;;;;;;;34.67;11.00;;;7.80;99.90;;;;;;5046817;28;20222;-54
2023/02/22 06:30:17;;;;;;;28.83;10.37;;;7.80;99.90;;;;;;5047292;28;20266;-56
2023/02/22 06:32:44;;;;;;;31.90;13.00;;;7.80;99.90;;;;;;5047299;28;20225;-56
2023/02/22 06:35:11;;;;;;;33.77;12.20;;;7.90;99.90;;;;;;5031442;28;20214;-56
2023/02/22 06:37:39;;;;;;;29.63;12.23;;;7.80;99.90;;;;;;5057565;28;20225;-52
2023/02/22 06:40:07;;;;;;;31.57;10.87;;;7.80;99.90;;;;;;5048920;28;20287;-55
2023/02/22 06:42:35;;;;;;;36.20;12.97;;;7.80;99.90;;;;;;5050042;28;20270;-54
2023/02/22 06:45:02;;;;;;;37.13;12.73;;;7.90;99.90;;;;;;5048643;28;20562;-57
2023/02/22 06:47:28;;;;;;;36.87;14.77;;;7.80;99.90;;;;;;5049838;28;20282;-49
2023/02/22 06:49:56;;;;;;;44.30;12.57;;;7.90;99.90;;;;;;5039296;28;20856;-55
2023/02/22 06:52:23;;;;;;;33.00;12.63;;;7.90;99.90;;;;;;5047945;28;20199;-53
2023/02/22 06:54:52;;;;;;;42.33;13.37;;;7.90;99.90;;;;;;5054437;28;20198;-49
2023/02/22 06:57:18;;;;;;;42.97;13.23;;;7.90;99.90;;;;;;5038954;28;20235;-51
2023/02/22 06:59:45;;;;;;;41.97;14.10;;;7.90;99.90;;;;;;5050750;28;20310;-54
2023/02/22 07:02:13;;;;;;;49.13;14.70;;;7.90;99.90;;;;;;5045731;28;20665;-56
2023/02/22 07:04:40;;;;;;;45.80;14.77;;;7.90;99.90;;;;;;5046384;28;20286;-53
2023/02/22 07:07:29;;;;;;;37.93;14.97;;;7.90;99.90;;;;;;5049524;28;20811;-50
2023/02/22 07:09:57;;;;;;;50.17;14.53;;;7.90;99.90;;;;;;5049426;28;20945;-54
2023/02/22 07:12:23;;;;;;;40.10;13.53;;;7.90;99.90;;;;;;5042908;28;20290;-53
2023/02/22 07:14:54;;;;;;;44.00;14.60;;;8.00;99.90;;;;;;5060636;28;20676;-49
2023/02/22 07:17:20;;;;;;;44.63;15.83;;;8.00;99.90;;;;;;5047975;28;20804;-49
2023/02/22 07:19:47;;;;;;;54.87;15.80;;;8.00;99.90;;;;;;5035777;28;20614;-49
2023/02/22 07:22:14;;;;;;;44.93;15.23;;;8.00;99.90;;;;;;5049171;28;20306;-52
2023/02/22 07:24:41;;;;;;;49.53;15.70;;;8.00;99.90;;;;;;5046350;28;20196;-51
2023/02/22 07:27:09;;;;;;;42.93;13.93;;;8.00;99.90;;;;;;5040111;28;20195;-57
2023/02/22 07:29:36;;;;;;;38.93;14.87;;;8.00;99.90;;;;;;5041391;28;20550;-53
2023/02/22 07:32:03;;;;;;;45.77;16.23;;;8.00;99.90;;;;;;5041076;28;20207;-53
2023/02/22 07:34:30;;;;;;;46.10;16.27;;;8.00;99.90;;;;;;5052781;28;20210;-49
2023/02/22 07:36:57;;;;;;;41.13;14.30;;;8.00;99.90;;;;;;5032020;28;20203;-54
2023/02/22 07:39:23;;;;;;;42.47;15.37;;;8.00;99.90;;;;;;5043446;28;20219;-54
2023/02/22 07:41:50;;;;;;;48.57;15.73;;;8.10;99.90;;;;;;5048162;28;20572;-51
2023/02/22 07:44:25;;;;;;;51.10;16.53;;;8.10;99.90;;;;;;5040070;28;20207;-55
2023/02/22 07:46:51;;;;;;;39.93;14.63;;;8.10;99.90;;;;;;5051379;28;20203;-51
2023/02/22 07:49:18;;;;;;;36.47;14.07;;;8.10;99.90;;;;;;5040888;28;20219;-53
2023/02/22 07:51:45;;;;;;;42.70;15.03;;;8.10;99.90;;;;;;5036061;28;20199;-52
2023/02/22 07:54:13;;;;;;;42.60;15.70;;;8.10;99.90;;;;;;5036480;28;20198;-51
2023/02/22 07:56:45;;;;;;;44.27;15.30;;;8.10;99.90;;;;;;5048189;28;20278;-56
2023/02/22 07:59:12;;;;;;;32.70;13.47;;;8.20;99.90;;;;;;5039543;28;20234;-51
2023/02/22 08:01:41;;;;;;;38.30;13.37;;;8.20;99.90;;;;;;5053402;28;20681;-55
2023/02/22 08:04:30;;;;;;;39.37;14.30;;;8.20;99.90;;;;;;5042086;28;20621;-54
2023/02/22 08:06:57;;;;;;;35.70;14.57;;;8.20;99.90;;;;;;5035625;28;20197;-52
2023/02/22 08:09:24;;;;;;;29.53;13.87;;;8.30;99.90;;;;;;5050472;28;20716;-54
2023/02/22 08:11:51;;;;;;;34.40;14.70;;;8.30;99.90;;;;;;5050639;28;20202;-53
2023/02/22 08:14:17;;;;;;;34.50;13.77;;;8.30;99.90;;;;;;5043141;28;20221;-52
2023/02/22 08:16:46;;;;;;;32.83;14.50;;;8.30;99.90;;;;;;5041882;28;20230;-54
2023/02/22 08:19:13;;;;;;;35.53;13.17;;;8.30;99.90;;;;;;5041701;28;20249;-51
2023/02/22 08:21:40;;;;;;;32.13;13.00;;;8.40;99.90;;;;;;5048787;28;20210;-55
2023/02/22 08:24:07;;;;;;;30.47;13.60;;;8.40;99.90;;;;;;5045898;28;20192;-52
2023/02/22 08:26:33;;;;;;;33.60;14.07;;;8.40;99.90;;;;;;5051245;28;20210;-57
2023/02/22 08:29:00;;;;;;;27.70;12.07;;;8.40;99.90;;;;;;5045909;28;20235;-54
2023/02/22 08:31:26;;;;;;;25.73;12.27;;;8.40;99.90;;;;;;5054032;28;20586;-51
2023/02/22 08:33:54;;;;;;;31.03;12.63;;;8.40;99.90;;;;;;5042029;28;20202;-52
2023/02/22 08:36:21;;;;;;;24.43;12.70;;;8.50;99.90;;;;;;5051039;28;20199;-52
2023/02/22 08:38:48;;;;;;;23.33;11.10;;;8.50;99.90;;;;;;5039013;28;20236;-55
2023/02/22 08:41:15;;;;;;;27.90;12.67;;;8.50;99.90;;;;;;5047384;28;20214;-53
2023/02/22 08:43:42;;;;;;;20.23;11.67;;;8.50;99.90;;;;;;5049616;28;20190;-55
2023/02/22 08:46:09;;;;;;;24.20;11.63;;;8.50;99.90;;;;;;5044488;28;20202;-56
2023/02/22 08:48:35;;;;;;;31.83;12.23;;;8.50;99.90;;;;;;5048631;28;20187;-56
2023/02/22 08:51:03;;;;;;;25.30;12.13;;;8.50;99.90;;;;;;5039596;28;20218;-52
2023/02/22 08:53:31;;;;;;;24.30;12.30;;;8.60;99.90;;;;;;5048077;28;20221;-53
2023/02/22 08:55:58;;;;;;;23.20;11.50;;;8.60;99.90;;;;;;5035949;28;20686;-52
2023/02/22 08:58:44;;;;;;;23.27;11.83;;;8.60;99.90;;;;;;5056860;28;20275;-55
2023/02/22 09:01:33;;;;;;;25.17;12.90;;;8.70;99.90;;;;;;5044542;28;20301;-52
2023/02/22 09:04:01;;;;;;;24.33;12.30;;;8.70;99.90;;;;;;5051567;28;20194;-51
2023/02/22 09:06:30;;;;;;;24.53;11.50;;;8.70;99.90;;;;;;5042282;28;20214;-52
2023/02/22 09:08:57;;;;;;;23.67;11.97;;;8.80;99.90;;;;;;5041848;28;20974;-55
2023/02/22 09:11:24;;;;;;;25.27;11.47;;;8.80;99.90;;;;;;5059477;28;20202;-51
2023/02/22 09:13:51;;;;;;;25.40;12.17;;;8.90;99.90;;;;;;5050921;28;20203;-54
2023/02/22 09:16:17;;;;;;;22.07;11.00;;;8.90;99.90;;;;;;5056095;28;20202;-53
2023/02/22 09:18:46;;;;;;;27.97;12.40;;;9.00;99.90;;;;;;5041002;28;20227;-55
2023/02/22 09:21:13;;;;;;;24.10;11.77;;;9.00;99.90;;;;;;5043981;28;20672;-55
2023/02/22 09:23:41;;;;;;;26.73;12.87;;;9.00;99.90;;;;;;5058610;28;20705;-52
2023/02/22 09:26:08;;;;;;;25.07;13.13;;;9.10;99.90;;;;;;5039217;28;20290;-56
2023/02/22 09:28:35;;;;;;;24.50;11.97;;;9.10;99.90;;;;;;5054937;28;20191;-53
2023/02/22 09:31:01;;;;;;;29.80;13.17;;;9.20;99.90;;;;;;5046171;28;20705;-56
2023/02/22 09:33:28;;;;;;;24.57;13.53;;;9.20;99.90;;;;;;5044107;28;20198;-55
2023/02/22 09:35:55;;;;;;;23.03;12.50;;;9.30;99.90;;;;;;5043841;28;20198;-55
2023/02/22 09:38:23;;;;;;;23.50;12.83;;;9.20;99.90;;;;;;5044625;28;20700;-52
2023/02/22 09:40:53;;;;;;;23.13;12.10;;;9.20;99.90;;;;;;5044699;28;20313;-52
2023/02/22 09:43:31;;;;;;;23.80;11.77;;;9.20;99.90;;;;;;5052896;28;20275;-56
2023/02/22 09:46:18;;;;;;;27.37;12.90;;;9.20;99.90;;;;;;5047227;28;20203;-53
2023/02/22 09:48:56;;;;;;;24.63;12.57;;;9.30;99.90;;;;;;5040628;28;20206;-56
2023/02/22 09:51:27;;;;;;;24.50;11.53;;;9.30;99.90;;;;;;5048302;28;20206;-52
2023/02/22 09:53:57;;;;;;;23.33;11.93;;;9.30;99.90;;;;;;5043197;28;20286;-53
2023/02/22 09:56:26;;;;;;;25.57;13.00;;;9.30;99.90;;;;;;5038186;28;20557;-51
2023/02/22 09:58:56;;;;;;;23.40;11.53;;;9.30;99.90;;;;;;5048082;28;20215;-51
2023/02/22 10:01:28;;;;;;;22.40;11.40;;;9.30;99.90;;;;;;5053645;28;20600;-51
2023/02/22 10:04:01;;;;;;;22.37;11.63;;;9.40;99.90;;;;;;5049398;28;20189;-51
2023/02/22 10:06:28;;;;;;;23.63;11.73;;;9.50;99.90;;;;;;5055794;28;20222;-55
2023/02/22 10:08:59;;;;;;;24.17;11.93;;;9.50;99.90;;;;;;5044999;28;20194;-52
2023/02/22 10:11:41;;;;;;;22.43;11.83;;;9.50;99.90;;;;;;5057012;28;20202;-51
2023/02/22 10:14:40;;;;;;;21.40;11.63;;;9.50;99.90;;;;;;5050377;28;20904;-52
2023/02/22 10:17:16;;;;;;;23.03;11.90;;;9.50;99.90;;;;;;5019456;28;20207;-53
2023/02/22 10:19:55;;;;;;;18.70;10.43;;;9.50;99.90;;;;;;5047554;28;20246;-55
2023/02/22 10:22:44;;;;;;;21.70;11.10;;;9.50;99.90;;;;;;5047273;28;20202;-49
2023/02/22 10:25:16;;;;;;;18.30;10.60;;;9.50;99.90;;;;;;5041045;28;20285;-53
2023/02/22 10:27:51;;;;;;;15.90;9.87;;;9.50;99.90;;;;;;5038562;28;20202;-57
2023/02/22 10:30:21;;;;;;;19.77;9.97;;;9.60;99.90;;;;;;5048594;28;20848;-50
2023/02/22 10:32:52;;;;;;;20.57;10.60;;;9.50;99.90;;;;;;5045977;28;20199;-56
2023/02/22 10:35:23;;;;;;;18.43;10.97;;;9.50;99.90;;;;;;5054215;28;20202;-55
2023/02/22 10:37:54;;;;;;;18.57;9.63;;;9.40;99.90;;;;;;5042570;28;20636;-57
2023/02/22 10:40:30;;;;;;;18.93;10.83;;;9.40;99.90;;;;;;5039771;28;20219;-54
2023/02/22 10:43:01;;;;;;;19.40;9.60;;;9.40;99.90;;;;;;5035163;28;20209;-51
2023/02/22 10:45:31;;;;;;;17.50;11.00;;;9.40;99.90;;;;;;5060774;28;20199;-52
2023/02/22 10:48:01;;;;;;;20.40;10.73;;;9.40;99.90;;;;;;5040437;28;20202;-55
2023/02/22 10:50:29;;;;;;;19.23;10.30;;;9.40;99.90;;;;;;5055905;28;20222;-49
2023/02/22 10:52:56;;;;;;;17.50;10.77;;;9.50;99.90;;;;;;5038352;28;20207;-53
2023/02/22 10:55:23;;;;;;;19.83;10.90;;;9.50;99.90;;;;;;5048360;28;20257;-52
2023/02/22 10:57:58;;;;;;;20.63;11.00;;;9.50;99.90;;;;;;5029605;28;20207;-57
2023/02/22 11:00:31;;;;;;;18.43;10.53;;;9.50;99.90;;;;;;5050701;28;20230;-53
2023/02/22 11:03:01;;;;;;;19.50;10.60;;;9.60;99.90;;;;;;5042304;28;20191;-54
2023/02/22 11:05:31;;;;;;;18.93;9.70;;;9.60;99.90;;;;;;5047627;28;20203;-51
2023/02/22 11:08:15;;;;;;;18.93;10.27;;;9.50;99.90;;;;;;5041521;28;20233;-52
2023/02/22 11:10:43;;;;;;;19.20;10.77;;;9.60;99.90;;;;;;5056369;28;20253;-57
2023/02/22 11:13:29;;;;;;;19.70;10.37;;;9.70;99.90;;;;;;5053634;28;20191;-52
2023/02/22 11:16:00;;;;;;;20.57;11.20;;;9.70;99.90;;;;;;5036968;28;21024;-50
2023/02/22 11:18:31;;;;;;;20.40;10.53;;;9.80;99.90;;;;;;5052003;28;20221;-50
2023/02/22 11:21:03;;;;;;;19.60;10.27;;;9.90;99.90;;;;;;5046452;28;20219;-52
2023/02/22 11:23:30;;;;;;;19.27;10.57;;;9.90;99.90;;;;;;5044136;28;20198;-53
2023/02/22 11:26:07;;;;;;;18.13;10.37;;;10.00;99.90;;;;;;5031607;28;20791;-52
2023/02/22 11:28:34;;;;;;;19.40;11.13;;;10.10;99.90;;;;;;5059478;28;20190;-55
2023/02/22 11:31:13;;;;;;;19.53;9.80;;;10.10;99.90;;;;;;5036332;28;20222;-52
2023/02/22 11:33:51;;;;;;;15.97;10.70;;;10.10;99.90;;;;;;5047919;28;20565;-56
2023/02/22 11:36:32;;;;;;;17.87;11.10;;;10.20;99.90;;;;;;5054242;28;20198;-53
2023/02/22 11:38:59;;;;;;;17.30;11.30;;;10.30;99.90;;;;;;5042950;28;20406;-50
2023/02/22 11:41:28;;;;;;;19.30;11.90;;;10.30;99.90;;;;;;5045575;28;20210;-50
2023/02/22 11:44:13;;;;;;;16.87;10.70;;;10.40;99.90;;;;;;5051816;28;20206;-49
2023/02/22 11:46:43;;;;;;;16.83;10.30;;;10.50;99.90;;;;;;5036872;28;20536;-57
2023/02/22 11:49:12;;;;;;;17.73;11.07;;;10.60;99.90;;;;;;5053076;28;20561;-51
2023/02/22 11:51:52;;;;;;;18.27;11.60;;;10.70;99.90;;;;;;5043582;28;20702;-56
2023/02/22 11:54:43;;;;;;;16.73;10.20;;;10.80;99.90;;;;;;5055387;28;20205;-50
2023/02/22 11:57:22;;;;;;;18.37;10.83;;;11.00;99.90;;;;;;5038018;28;20218;-50
2023/02/22 12:00:06;;;;;;;16.73;10.67;;;11.10;99.90;;;;;;5054252;28;20218;-56
2023/02/22 12:02:51;;;;;;;14.73;9.93;;;11.20;99.90;;;;;;5036464;28;20705;-51
2023/02/22 12:05:35;;;;;;;16.70;10.60;;;11.20;99.90;;;;;;5049650;28;20688;-51
2023/02/22 12:08:15;;;;;;;16.37;9.77;;;11.30;99.90;;;;;;5050718;28;20286;-52
2023/02/22 12:10:55;;;;;;;15.20;9.73;;;11.30;99.90;;;;;;5043541;28;20302;-53
2023/02/22 12:13:37;;;;;;;16.03;9.80;;;11.40;99.90;;;;;;5043733;28;20203;-53
2023/02/22 12:16:13;;;;;;;16.87;11.00;;;11.40;99.90;;;;;;5038574;28;20995;-53
2023/02/22 12:18:56;;;;;;;15.07;9.83;;;11.30;99.90;;;;;;5053242;28;20673;-54
2023/02/22 12:21:25;;;;;;;14.50;9.57;;;11.40;99.90;;;;;;5046323;28;20282;-51
2023/02/22 12:23:57;;;;;;;13.20;9.63;;;11.40;99.90;;;;;;5046303;28;20201;-52
2023/02/22 12:26:29;;;;;;;14.63;9.43;;;11.50;99.90;;;;;;5044244;28;20210;-51
2023/02/22 12:29:03;;;;;;;14.97;10.17;;;11.50;99.90;;;;;;5044215;28;20206;-52
2023/02/22 12:31:35;;;;;;;16.93;10.27;;;11.60;99.90;;;;;;5039844;28;20206;-54
2023/02/22 12:34:10;;;;;;;16.63;9.63;;;11.50;99.90;;;;;;5051066;28;20277;-54
2023/02/22 12:36:41;;;;;;;14.93;9.47;;;11.60;99.90;;;;;;5054725;28;20268;-56
2023/02/22 12:39:27;;;;;;;13.63;9.40;;;11.70;99.90;;;;;;5046268;28;20218;-51
2023/02/22 12:41:55;;;;;;;14.20;10.00;;;11.70;99.90;;;;;;5036378;28;20286;-55
2023/02/22 12:44:26;;;;;;;15.13;9.63;;;11.70;99.90;;;;;;5045524;28;20290;-52
2023/02/22 12:46:55;;;;;;;15.10;9.97;;;11.70;99.90;;;;;;5039978;28;20364;-53
2023/02/22 12:49:30;;;;;;;12.40;8.43;;;11.80;99.90;;;;;;5051198;28;20218;-53
2023/02/22 12:52:03;;;;;;;13.30;9.80;;;11.70;99.90;;;;;;5048805;28;20191;-50
2023/02/22 12:54:41;;;;;;;16.17;9.63;;;11.80;99.90;;;;;;5049035;28;20211;-50
2023/02/22 12:57:15;;;;;;;12.73;9.27;;;11.80;99.90;;;;;;5046650;28;20925;-52
2023/02/22 12:59:47;;;;;;;14.93;9.80;;;11.80;99.90;;;;;;5040402;28;20242;-56